sensor_id;sensor_type;location;lat;lon;timestamp;pressure;altitude;pressure_sealevel;temperature;humidity
15670;BME280;18524;45.190;5.732;2022-10-22T00:03:10;99154.00;;;16.50;100.00
15670;BME280;18524;45.190;5.732;2022-10-22T00:08:01;99188.41;;;16.50;100.00
15670;BME280;18524;45.190;5.732;2022-10-22T00:12:51;99173.34;;;16.51;100.00
15670;BME280;18524;45.190;5.732;2022-10-22T00:17:41;99178.50;;;16.52;100.00
15670;BME280;18524;45.190;5.732;2022-10-22T00:22:32;99169.75;;;16.60;100.00
15670;BME280;18524;45.190;5.732;2022-10-22T00:27:22;99174.03;;;16.53;100.00
15670;BME280;18524;45.190;5.732;2022-10-22T00:32:13;99203.81;;;16.55;100.00
15670;BME280;18524;45.190;5.732;2022-10-22T00:37:04;99188.56;;;16.49;100.00
15670;BME280;18524;45.190;5.732;2022-10-22T00:41:55;99177.97;;;16.49;100.00
15670;BME280;18524;45.190;5.732;2022-10-22T00:46:46;99186.63;;;16.59;100.00
15670;BME280;18524;45.190;5.732;2022-10-22T00:51:36;99175.53;;;16.64;100.00
15670;BME280;18524;45.190;5.732;2022-10-22T00:56:27;99176.69;;;16.61;100.00
15670;BME280;18524;45.190;5.732;2022-10-22T01:01:23;99189.41;;;16.49;100.00
15670;BME280;18524;45.190;5.732;2022-10-22T01:06:25;99182.94;;;16.44;100.00
15670;BME280;18524;45.190;5.732;2022-10-22T01:21:45;99220.81;;;16.44;100.00
15670;BME280;18524;45.190;5.732;2022-10-22T01:31:55;99185.44;;;16.53;100.00
15670;BME280;18524;45.190;5.732;2022-10-22T01:36:48;99178.13;;;16.39;100.00
15670;BME280;18524;45.190;5.732;2022-10-22T01:41:42;99195.28;;;16.35;100.00
15670;BME280;18524;45.190;5.732;2022-10-22T01:46:35;99173.50;;;16.41;100.00
15670;BME280;18524;45.190;5.732;2022-10-22T01:56:48;99182.44;;;16.40;100.00
15670;BME280;18524;45.190;5.732;2022-10-22T02:02:03;99179.13;;;16.46;100.00
15670;BME280;18524;45.190;5.732;2022-10-22T02:06:58;99169.69;;;16.44;100.00
15670;BME280;18524;45.190;5.732;2022-10-22T02:11:50;99163.84;;;16.32;100.00
15670;BME280;18524;45.190;5.732;2022-10-22T02:16:44;99172.75;;;16.23;100.00
15670;BME280;18524;45.190;5.732;2022-10-22T02:21:34;99170.50;;;16.36;100.00
15670;BME280;18524;45.190;5.732;2022-10-22T02:26:34;99168.78;;;16.27;100.00
15670;BME280;18524;45.190;5.732;2022-10-22T02:31:30;99169.97;;;16.33;100.00
15670;BME280;18524;45.190;5.732;2022-10-22T02:36:22;99158.53;;;16.24;100.00
15670;BME280;18524;45.190;5.732;2022-10-22T02:41:14;99163.50;;;16.27;100.00
15670;BME280;18524;45.190;5.732;2022-10-22T02:46:06;99171.09;;;16.22;100.00
15670;BME280;18524;45.190;5.732;2022-10-22T02:50:56;99175.41;;;16.31;100.00
15670;BME280;18524;45.190;5.732;2022-10-22T02:55:46;99171.78;;;16.32;100.00
15670;BME280;18524;45.190;5.732;2022-10-22T03:00:37;99160.50;;;16.22;100.00
15670;BME280;18524;45.190;5.732;2022-10-22T03:05:27;99174.75;;;16.29;100.00
15670;BME280;18524;45.190;5.732;2022-10-22T03:10:17;99183.00;;;16.26;100.00
15670;BME280;18524;45.190;5.732;2022-10-22T03:15:08;99185.50;;;16.27;100.00
15670;BME280;18524;45.190;5.732;2022-10-22T03:19:59;99194.25;;;16.28;100.00
15670;BME280;18524;45.190;5.732;2022-10-22T03:24:52;99200.34;;;16.20;100.00
15670;BME280;18524;45.190;5.732;2022-10-22T03:29:44;99197.06;;;16.26;100.00
15670;BME280;18524;45.190;5.732;2022-10-22T03:34:36;99213.78;;;16.27;100.00
15670;BME280;18524;45.190;5.732;2022-10-22T03:39:28;99215.44;;;16.28;100.00
15670;BME280;18524;45.190;5.732;2022-10-22T03:44:19;99232.06;;;16.12;100.00
15670;BME280;18524;45.190;5.732;2022-10-22T03:49:10;99220.66;;;16.12;100.00
15670;BME280;18524;45.190;5.732;2022-10-22T03:54:02;99224.28;;;16.11;100.00
15670;BME280;18524;45.190;5.732;2022-10-22T03:58:58;99225.28;;;16.10;100.00
15670;BME280;18524;45.190;5.732;2022-10-22T04:03:49;99223.94;;;16.06;100.00
15670;BME280;18524;45.190;5.732;2022-10-22T04:08:42;99245.78;;;16.08;100.00
15670;BME280;18524;45.190;5.732;2022-10-22T04:13:33;99241.88;;;16.20;100.00
15670;BME280;18524;45.190;5.732;2022-10-22T04:18:24;99246.66;;;16.16;100.00
15670;BME280;18524;45.190;5.732;2022-10-22T04:23:14;99234.19;;;16.09;100.00
15670;BME280;18524;45.190;5.732;2022-10-22T04:28:06;99229.44;;;16.12;100.00
15670;BME280;18524;45.190;5.732;2022-10-22T04:32:57;99235.88;;;16.10;100.00
15670;BME280;18524;45.190;5.732;2022-10-22T04:37:47;99246.75;;;16.07;100.00
15670;BME280;18524;45.190;5.732;2022-10-22T04:42:37;99242.19;;;16.17;100.00
15670;BME280;18524;45.190;5.732;2022-10-22T04:47:28;99232.91;;;16.13;100.00
15670;BME280;18524;45.190;5.732;2022-10-22T04:52:18;99257.69;;;16.12;100.00
15670;BME280;18524;45.190;5.732;2022-10-22T04:57:09;99245.09;;;16.06;100.00
15670;BME280;18524;45.190;5.732;2022-10-22T05:01:59;99242.09;;;16.01;100.00
15670;BME280;18524;45.190;5.732;2022-10-22T05:06:49;99246.72;;;15.99;100.00
15670;BME280;18524;45.190;5.732;2022-10-22T05:11:41;99257.06;;;15.92;100.00
15670;BME280;18524;45.190;5.732;2022-10-22T05:16:34;99273.16;;;15.99;100.00
15670;BME280;18524;45.190;5.732;2022-10-22T05:21:25;99268.97;;;15.96;100.00
15670;BME280;18524;45.190;5.732;2022-10-22T05:26:18;99266.97;;;15.90;100.00
15670;BME280;18524;45.190;5.732;2022-10-22T05:31:11;99287.59;;;15.86;100.00
15670;BME280;18524;45.190;5.732;2022-10-22T05:36:03;99282.97;;;16.06;100.00
15670;BME280;18524;45.190;5.732;2022-10-22T05:41:04;99283.44;;;16.02;100.00
15670;BME280;18524;45.190;5.732;2022-10-22T05:45:55;99288.06;;;16.00;100.00
15670;BME280;18524;45.190;5.732;2022-10-22T05:50:45;99298.34;;;15.85;100.00
15670;BME280;18524;45.190;5.732;2022-10-22T05:55:39;99290.81;;;15.72;100.00
15670;BME280;18524;45.190;5.732;2022-10-22T06:00:30;99306.00;;;15.70;100.00
15670;BME280;18524;45.190;5.732;2022-10-22T06:05:20;99309.28;;;15.54;100.00
15670;BME280;18524;45.190;5.732;2022-10-22T06:10:16;99323.03;;;15.58;100.00
15670;BME280;18524;45.190;5.732;2022-10-22T06:15:10;99335.53;;;15.66;100.00
15670;BME280;18524;45.190;5.732;2022-10-22T06:20:01;99324.34;;;15.72;100.00
15670;BME280;18524;45.190;5.732;2022-10-22T06:24:51;99331.16;;;15.74;100.00
15670;BME280;18524;45.190;5.732;2022-10-22T06:29:41;99327.31;;;15.69;100.00
15670;BME280;18524;45.190;5.732;2022-10-22T06:34:32;99327.31;;;15.69;100.00
15670;BME280;18524;45.190;5.732;2022-10-22T06:39:22;99340.31;;;15.62;100.00
15670;BME280;18524;45.190;5.732;2022-10-22T06:44:14;99346.94;;;15.66;100.00
15670;BME280;18524;45.190;5.732;2022-10-22T06:49:05;99357.16;;;15.61;100.00
15670;BME280;18524;45.190;5.732;2022-10-22T06:53:57;99366.19;;;15.58;100.00
15670;BME280;18524;45.190;5.732;2022-10-22T06:58:48;99364.47;;;15.57;100.00
15670;BME280;18524;45.190;5.732;2022-10-22T07:03:40;99368.63;;;15.70;100.00
15670;BME280;18524;45.190;5.732;2022-10-22T07:08:31;99373.47;;;15.74;100.00
15670;BME280;18524;45.190;5.732;2022-10-22T07:13:22;99374.72;;;15.88;100.00
15670;BME280;18524;45.190;5.732;2022-10-22T07:18:12;99368.00;;;15.93;100.00
15670;BME280;18524;45.190;5.732;2022-10-22T07:23:02;99376.63;;;15.95;100.00
15670;BME280;18524;45.190;5.732;2022-10-22T07:27:53;99385.22;;;15.98;100.00
15670;BME280;18524;45.190;5.732;2022-10-22T07:32:43;99392.44;;;16.05;100.00
15670;BME280;18524;45.190;5.732;2022-10-22T07:37:33;99390.59;;;16.23;100.00
15670;BME280;18524;45.190;5.732;2022-10-22T07:42:24;99396.03;;;16.22;100.00
15670;BME280;18524;45.190;5.732;2022-10-22T07:47:14;99402.00;;;16.24;100.00
15670;BME280;18524;45.190;5.732;2022-10-22T07:52:05;99403.34;;;16.28;100.00
15670;BME280;18524;45.190;5.732;2022-10-22T07:56:56;99413.31;;;16.34;100.00
15670;BME280;18524;45.190;5.732;2022-10-22T08:01:47;99411.81;;;16.32;100.00
15670;BME280;18524;45.190;5.732;2022-10-22T08:06:37;99419.91;;;16.48;100.00
15670;BME280;18524;45.190;5.732;2022-10-22T08:11:28;99422.88;;;16.71;100.00
15670;BME280;18524;45.190;5.732;2022-10-22T08:16:19;99420.78;;;17.08;100.00
15670;BME280;18524;45.190;5.732;2022-10-22T08:21:12;99434.31;;;17.31;100.00
15670;BME280;18524;45.190;5.732;2022-10-22T08:26:03;99431.13;;;17.62;100.00
15670;BME280;18524;45.190;5.732;2022-10-22T08:30:54;99423.31;;;17.52;100.00
15670;BME280;18524;45.190;5.732;2022-10-22T08:35:49;99426.69;;;17.28;100.00
15670;BME280;18524;45.190;5.732;2022-10-22T08:40:41;99425.66;;;17.21;100.00
15670;BME280;18524;45.190;5.732;2022-10-22T08:45:46;99426.34;;;17.23;100.00
15670;BME280;18524;45.190;5.732;2022-10-22T08:50:45;99433.31;;;17.32;100.00
15670;BME280;18524;45.190;5.732;2022-10-22T08:55:36;99440.13;;;17.69;100.00
15670;BME280;18524;45.190;5.732;2022-10-22T09:00:43;99431.75;;;18.22;100.00
15670;BME280;18524;45.190;5.732;2022-10-22T09:10:32;99412.66;;;18.76;100.00
15670;BME280;18524;45.190;5.732;2022-10-22T09:15:24;99416.94;;;18.85;100.00
15670;BME280;18524;45.190;5.732;2022-10-22T09:20:39;99425.88;;;19.08;100.00
15670;BME280;18524;45.190;5.732;2022-10-22T09:25:35;99420.31;;;19.26;100.00
15670;BME280;18524;45.190;5.732;2022-10-22T09:30:28;99416.25;;;19.46;100.00
15670;BME280;18524;45.190;5.732;2022-10-22T09:35:22;99415.81;;;19.74;99.01
15670;BME280;18524;45.190;5.732;2022-10-22T09:40:14;99409.59;;;19.81;97.05
15670;BME280;18524;45.190;5.732;2022-10-22T09:45:04;99410.38;;;19.90;91.64
15670;BME280;18524;45.190;5.732;2022-10-22T09:55:16;99391.13;;;20.25;87.82
15670;BME280;18524;45.190;5.732;2022-10-22T10:00:09;99399.50;;;20.60;84.71
15670;BME280;18524;45.190;5.732;2022-10-22T10:05:02;99394.28;;;20.96;83.68
15670;BME280;18524;45.190;5.732;2022-10-22T10:09:53;99394.84;;;21.06;79.52
15670;BME280;18524;45.190;5.732;2022-10-22T10:14:47;99393.81;;;21.07;78.31
15670;BME280;18524;45.190;5.732;2022-10-22T10:24:49;99397.41;;;21.80;75.90
15670;BME280;18524;45.190;5.732;2022-10-22T10:40:30;99387.06;;;22.13;73.95
15670;BME280;18524;45.190;5.732;2022-10-22T10:50:37;99379.50;;;22.38;69.52
15670;BME280;18524;45.190;5.732;2022-10-22T10:55:58;99370.88;;;22.42;69.30
15670;BME280;18524;45.190;5.732;2022-10-22T11:00:54;99364.94;;;22.47;67.76
15670;BME280;18524;45.190;5.732;2022-10-22T11:06:02;99364.41;;;22.58;66.46
15670;BME280;18524;45.190;5.732;2022-10-22T11:11:06;99353.41;;;22.74;67.21
15670;BME280;18524;45.190;5.732;2022-10-22T11:16:05;99353.69;;;23.27;66.34
15670;BME280;18524;45.190;5.732;2022-10-22T11:25:52;99334.16;;;23.27;67.09
15670;BME280;18524;45.190;5.732;2022-10-22T11:30:44;99324.66;;;23.24;68.15
15670;BME280;18524;45.190;5.732;2022-10-22T11:35:40;99309.31;;;22.92;69.48
15670;BME280;18524;45.190;5.732;2022-10-22T11:40:35;99305.19;;;22.89;68.82
15670;BME280;18524;45.190;5.732;2022-10-22T11:45:29;99304.03;;;22.70;70.60
15670;BME280;18524;45.190;5.732;2022-10-22T11:50:26;99302.50;;;22.55;72.36
15670;BME280;18524;45.190;5.732;2022-10-22T11:55:34;99287.72;;;22.65;71.86
15670;BME280;18524;45.190;5.732;2022-10-22T12:00:46;99282.09;;;22.82;70.31
15670;BME280;18524;45.190;5.732;2022-10-22T12:05:38;99265.66;;;22.85;71.49
15670;BME280;18524;45.190;5.732;2022-10-22T12:10:34;99262.56;;;22.88;70.21
15670;BME280;18524;45.190;5.732;2022-10-22T12:15:26;99254.56;;;22.94;69.55
15670;BME280;18524;45.190;5.732;2022-10-22T12:20:17;99245.75;;;23.00;68.67
15670;BME280;18524;45.190;5.732;2022-10-22T12:25:21;99237.91;;;22.92;69.99
15670;BME280;18524;45.190;5.732;2022-10-22T12:30:23;99229.78;;;22.72;69.72
15670;BME280;18524;45.190;5.732;2022-10-22T12:35:17;99222.44;;;22.81;69.32
15670;BME280;18524;45.190;5.732;2022-10-22T12:40:25;99224.44;;;22.72;69.81
15670;BME280;18524;45.190;5.732;2022-10-22T12:45:17;99203.00;;;22.66;68.93
15670;BME280;18524;45.190;5.732;2022-10-22T12:50:15;99198.22;;;22.55;68.67
15670;BME280;18524;45.190;5.732;2022-10-22T12:55:07;99189.75;;;22.44;68.82
15670;BME280;18524;45.190;5.732;2022-10-22T12:59:59;99179.91;;;22.45;68.10
15670;BME280;18524;45.190;5.732;2022-10-22T13:05:24;99171.16;;;22.30;70.13
15670;BME280;18524;45.190;5.732;2022-10-22T13:10:29;99164.69;;;22.45;68.18
15670;BME280;18524;45.190;5.732;2022-10-22T13:15:40;99159.94;;;22.41;68.23
15670;BME280;18524;45.190;5.732;2022-10-22T13:20:32;99151.31;;;22.45;68.54
15670;BME280;18524;45.190;5.732;2022-10-22T13:25:25;99151.53;;;22.44;66.74
15670;BME280;18524;45.190;5.732;2022-10-22T13:35:21;99141.06;;;22.49;67.97
15670;BME280;18524;45.190;5.732;2022-10-22T13:40:12;99136.31;;;22.51;67.90
15670;BME280;18524;45.190;5.732;2022-10-22T13:45:03;99122.75;;;22.46;66.88
15670;BME280;18524;45.190;5.732;2022-10-22T13:49:55;99121.50;;;22.42;67.03
15670;BME280;18524;45.190;5.732;2022-10-22T13:54:47;99114.91;;;22.38;67.96
15670;BME280;18524;45.190;5.732;2022-10-22T13:59:37;99109.56;;;22.38;68.12
15670;BME280;18524;45.190;5.732;2022-10-22T14:04:28;99099.91;;;22.37;67.00
15670;BME280;18524;45.190;5.732;2022-10-22T14:09:18;99099.72;;;22.45;66.43
15670;BME280;18524;45.190;5.732;2022-10-22T14:14:09;99102.16;;;22.40;65.58
15670;BME280;18524;45.190;5.732;2022-10-22T14:19:03;99097.22;;;22.37;65.29
15670;BME280;18524;45.190;5.732;2022-10-22T14:23:56;99085.88;;;22.28;66.67
15670;BME280;18524;45.190;5.732;2022-10-22T14:28:46;99087.38;;;22.37;67.13
15670;BME280;18524;45.190;5.732;2022-10-22T14:33:38;99085.09;;;22.34;68.31
15670;BME280;18524;45.190;5.732;2022-10-22T14:38:28;99084.41;;;22.26;68.13
15670;BME280;18524;45.190;5.732;2022-10-22T14:43:27;99075.75;;;22.17;69.02
15670;BME280;18524;45.190;5.732;2022-10-22T14:48:18;99066.47;;;22.06;69.41
15670;BME280;18524;45.190;5.732;2022-10-22T14:53:09;99074.91;;;22.03;69.41
15670;BME280;18524;45.190;5.732;2022-10-22T14:57:59;99069.41;;;22.18;69.60
15670;BME280;18524;45.190;5.732;2022-10-22T15:02:49;99076.97;;;22.08;69.01
15670;BME280;18524;45.190;5.732;2022-10-22T15:07:40;99071.22;;;22.11;67.56
15670;BME280;18524;45.190;5.732;2022-10-22T15:12:31;99065.84;;;22.04;68.93
15670;BME280;18524;45.190;5.732;2022-10-22T15:17:21;99069.56;;;22.03;70.05
15670;BME280;18524;45.190;5.732;2022-10-22T15:22:12;99075.25;;;22.00;70.69
15670;BME280;18524;45.190;5.732;2022-10-22T15:27:03;99072.09;;;21.90;71.81
15670;BME280;18524;45.190;5.732;2022-10-22T15:31:55;99069.06;;;21.93;71.87
15670;BME280;18524;45.190;5.732;2022-10-22T15:36:50;99077.63;;;21.82;72.54
15670;BME280;18524;45.190;5.732;2022-10-22T15:41:40;99081.25;;;21.68;73.90
15670;BME280;18524;45.190;5.732;2022-10-22T15:46:32;99082.09;;;21.75;73.93
15670;BME280;18524;45.190;5.732;2022-10-22T15:51:22;99076.63;;;21.55;75.29
15670;BME280;18524;45.190;5.732;2022-10-22T15:56:13;99078.81;;;21.45;75.86
15670;BME280;18524;45.190;5.732;2022-10-22T16:01:11;99088.19;;;21.34;76.05
15670;BME280;18524;45.190;5.732;2022-10-22T16:06:02;99096.09;;;21.21;77.07
15670;BME280;18524;45.190;5.732;2022-10-22T16:10:53;99089.19;;;21.27;76.91
15670;BME280;18524;45.190;5.732;2022-10-22T16:15:43;99094.22;;;21.21;78.10
15670;BME280;18524;45.190;5.732;2022-10-22T16:20:38;99080.56;;;21.10;79.32
15670;BME280;18524;45.190;5.732;2022-10-22T16:25:28;99072.97;;;21.07;79.98
15670;BME280;18524;45.190;5.732;2022-10-22T16:30:19;99080.97;;;21.07;80.74
15670;BME280;18524;45.190;5.732;2022-10-22T16:35:09;99065.88;;;20.92;82.46
15670;BME280;18524;45.190;5.732;2022-10-22T16:39:59;99071.97;;;20.86;83.53
15670;BME280;18524;45.190;5.732;2022-10-22T16:44:50;99076.88;;;20.83;83.04
15670;BME280;18524;45.190;5.732;2022-10-22T16:49:40;99085.22;;;20.58;85.40
15670;BME280;18524;45.190;5.732;2022-10-22T16:54:30;99087.44;;;20.55;86.04
15670;BME280;18524;45.190;5.732;2022-10-22T16:59:22;99106.03;;;20.48;87.00
15670;BME280;18524;45.190;5.732;2022-10-22T17:04:12;99112.44;;;20.54;87.42
15670;BME280;18524;45.190;5.732;2022-10-22T17:09:03;99115.47;;;20.36;88.41
15670;BME280;18524;45.190;5.732;2022-10-22T17:13:54;99118.50;;;20.33;89.42
15670;BME280;18524;45.190;5.732;2022-10-22T17:18:44;99124.97;;;20.24;90.82
15670;BME280;18524;45.190;5.732;2022-10-22T17:23:35;99133.88;;;20.16;91.41
15670;BME280;18524;45.190;5.732;2022-10-22T17:28:27;99130.94;;;20.11;92.56
15670;BME280;18524;45.190;5.732;2022-10-22T17:33:18;99142.88;;;20.01;92.49
15670;BME280;18524;45.190;5.732;2022-10-22T17:38:08;99145.91;;;19.97;93.04
15670;BME280;18524;45.190;5.732;2022-10-22T17:42:58;99150.03;;;19.85;94.33
15670;BME280;18524;45.190;5.732;2022-10-22T17:47:49;99155.19;;;19.87;95.14
15670;BME280;18524;45.190;5.732;2022-10-22T17:52:41;99152.78;;;19.77;94.87
15670;BME280;18524;45.190;5.732;2022-10-22T17:57:31;99152.97;;;19.76;94.45
15670;BME280;18524;45.190;5.732;2022-10-22T18:02:22;99145.53;;;19.71;94.24
15670;BME280;18524;45.190;5.732;2022-10-22T18:07:12;99152.03;;;19.68;94.16
15670;BME280;18524;45.190;5.732;2022-10-22T18:12:03;99146.38;;;19.72;95.73
15670;BME280;18524;45.190;5.732;2022-10-22T18:16:54;99156.19;;;19.71;94.86
15670;BME280;18524;45.190;5.732;2022-10-22T18:21:45;99156.16;;;19.56;95.99
15670;BME280;18524;45.190;5.732;2022-10-22T18:26:35;99158.09;;;19.40;96.82
15670;BME280;18524;45.190;5.732;2022-10-22T18:31:27;99173.63;;;19.28;98.38
15670;BME280;18524;45.190;5.732;2022-10-22T18:36:21;99165.16;;;19.10;99.94
15670;BME280;18524;45.190;5.732;2022-10-22T18:41:12;99159.00;;;19.09;100.00
15670;BME280;18524;45.190;5.732;2022-10-22T18:46:05;99178.03;;;18.98;100.00
15670;BME280;18524;45.190;5.732;2022-10-22T18:51:01;99180.88;;;18.96;100.00
15670;BME280;18524;45.190;5.732;2022-10-22T18:55:51;99170.44;;;18.87;100.00
15670;BME280;18524;45.190;5.732;2022-10-22T19:00:42;99176.94;;;18.84;100.00
15670;BME280;18524;45.190;5.732;2022-10-22T19:05:33;99182.59;;;18.81;100.00
15670;BME280;18524;45.190;5.732;2022-10-22T19:10:23;99172.50;;;18.77;100.00
15670;BME280;18524;45.190;5.732;2022-10-22T19:15:13;99176.00;;;18.77;100.00
15670;BME280;18524;45.190;5.732;2022-10-22T19:20:04;99182.66;;;18.73;100.00
15670;BME280;18524;45.190;5.732;2022-10-22T19:24:55;99175.03;;;18.70;100.00
15670;BME280;18524;45.190;5.732;2022-10-22T19:29:46;99177.69;;;18.70;100.00
15670;BME280;18524;45.190;5.732;2022-10-22T19:34:38;99170.41;;;18.56;100.00
15670;BME280;18524;45.190;5.732;2022-10-22T19:39:30;99175.59;;;18.49;100.00
15670;BME280;18524;45.190;5.732;2022-10-22T19:44:20;99175.47;;;18.42;100.00
15670;BME280;18524;45.190;5.732;2022-10-22T19:49:10;99170.53;;;18.31;100.00
15670;BME280;18524;45.190;5.732;2022-10-22T19:54:05;99182.16;;;18.30;100.00
15670;BME280;18524;45.190;5.732;2022-10-22T19:58:56;99183.00;;;18.31;100.00
15670;BME280;18524;45.190;5.732;2022-10-22T20:03:47;99187.81;;;18.27;100.00
15670;BME280;18524;45.190;5.732;2022-10-22T20:08:38;99189.66;;;18.27;100.00
15670;BME280;18524;45.190;5.732;2022-10-22T20:13:28;99197.13;;;18.23;100.00
15670;BME280;18524;45.190;5.732;2022-10-22T20:18:19;99204.28;;;18.15;100.00
15670;BME280;18524;45.190;5.732;2022-10-22T20:23:11;99204.44;;;18.21;100.00
15670;BME280;18524;45.190;5.732;2022-10-22T20:28:01;99209.13;;;18.03;100.00
15670;BME280;18524;45.190;5.732;2022-10-22T20:32:52;99200.88;;;17.90;100.00
15670;BME280;18524;45.190;5.732;2022-10-22T20:37:42;99216.31;;;17.86;100.00
15670;BME280;18524;45.190;5.732;2022-10-22T20:42:33;99199.03;;;17.82;100.00
15670;BME280;18524;45.190;5.732;2022-10-22T20:47:23;99193.56;;;17.92;100.00
15670;BME280;18524;45.190;5.732;2022-10-22T20:52:14;99219.94;;;17.85;100.00
15670;BME280;18524;45.190;5.732;2022-10-22T20:57:04;99202.03;;;17.79;100.00
15670;BME280;18524;45.190;5.732;2022-10-22T21:01:54;99209.84;;;17.72;100.00
15670;BME280;18524;45.190;5.732;2022-10-22T21:06:45;99212.47;;;17.72;100.00
15670;BME280;18524;45.190;5.732;2022-10-22T21:11:38;99206.16;;;17.65;100.00
15670;BME280;18524;45.190;5.732;2022-10-22T21:16:29;99195.22;;;17.60;100.00
15670;BME280;18524;45.190;5.732;2022-10-22T21:21:20;99197.91;;;17.52;100.00
15670;BME280;18524;45.190;5.732;2022-10-22T21:26:10;99180.97;;;17.53;100.00
15670;BME280;18524;45.190;5.732;2022-10-22T21:31:03;99196.22;;;17.51;100.00
15670;BME280;18524;45.190;5.732;2022-10-22T21:35:54;99195.75;;;17.47;100.00
15670;BME280;18524;45.190;5.732;2022-10-22T21:40:45;99193.22;;;17.46;100.00
15670;BME280;18524;45.190;5.732;2022-10-22T21:45:35;99194.41;;;17.52;100.00
15670;BME280;18524;45.190;5.732;2022-10-22T21:50:26;99189.28;;;17.50;100.00
15670;BME280;18524;45.190;5.732;2022-10-22T21:55:16;99207.34;;;17.55;100.00
15670;BME280;18524;45.190;5.732;2022-10-22T22:00:08;99190.44;;;17.47;100.00
15670;BME280;18524;45.190;5.732;2022-10-22T22:04:58;99199.34;;;17.46;100.00
15670;BME280;18524;45.190;5.732;2022-10-22T22:09:49;99193.56;;;17.43;100.00
15670;BME280;18524;45.190;5.732;2022-10-22T22:14:40;99192.41;;;17.29;100.00
15670;BME280;18524;45.190;5.732;2022-10-22T22:19:30;99211.97;;;17.20;100.00
15670;BME280;18524;45.190;5.732;2022-10-22T22:24:20;99219.91;;;17.12;100.00
15670;BME280;18524;45.190;5.732;2022-10-22T22:29:11;99215.72;;;17.09;100.00
15670;BME280;18524;45.190;5.732;2022-10-22T22:34:13;99207.66;;;17.19;100.00
15670;BME280;18524;45.190;5.732;2022-10-22T22:39:05;99231.63;;;17.09;100.00
15670;BME280;18524;45.190;5.732;2022-10-22T22:43:56;99218.38;;;17.09;100.00
15670;BME280;18524;45.190;5.732;2022-10-22T22:48:47;99223.84;;;17.08;100.00
15670;BME280;18524;45.190;5.732;2022-10-22T22:53:38;99211.59;;;17.07;100.00
15670;BME280;18524;45.190;5.732;2022-10-22T22:58:29;99210.09;;;16.96;100.00
15670;BME280;18524;45.190;5.732;2022-10-22T23:03:19;99207.94;;;16.92;100.00
15670;BME280;18524;45.190;5.732;2022-10-22T23:08:09;99201.28;;;16.79;100.00
15670;BME280;18524;45.190;5.732;2022-10-22T23:13:00;99202.47;;;16.85;100.00
15670;BME280;18524;45.190;5.732;2022-10-22T23:17:50;99188.53;;;16.83;100.00
15670;BME280;18524;45.190;5.732;2022-10-22T23:22:40;99196.50;;;16.83;100.00
15670;BME280;18524;45.190;5.732;2022-10-22T23:27:31;99188.22;;;16.78;100.00
15670;BME280;18524;45.190;5.732;2022-10-22T23:32:21;99192.31;;;16.72;100.00
15670;BME280;18524;45.190;5.732;2022-10-22T23:37:11;99194.59;;;16.67;100.00
15670;BME280;18524;45.190;5.732;2022-10-22T23:42:02;99188.28;;;16.60;100.00
15670;BME280;18524;45.190;5.732;2022-10-22T23:46:52;99163.00;;;16.66;100.00
15670;BME280;18524;45.190;5.732;2022-10-22T23:51:44;99194.72;;;16.57;100.00
15670;BME280;18524;45.190;5.732;2022-10-22T23:56:34;99192.56;;;16.61;100.00
